^^
Grace C. Lehan Memorial Weather Station Historical Data
Daily Summary for May 3, 2022 Units:  English    Metric   Both
Daily Weekly Monthly Yearly
  High: Low: Average:
Temperature: 91 °F 67.7 °F 79.1 °F
Dew Point: 69.8 °F 63.4 °F 66 °F
Humidity: 87% 43.2% 66%
Wind Speed: 2.8mph 0mph 0.2mph
Wind Gust: 10mph - -
Wind- - WSW
Pressure: 29.99 in 29.85 in -
Precipitation: 0.00 in    
 
 
Tabular Data for May 3, 2022
Time Temperature Dew Point Pressure Wind Wind Speed Wind Gust Humidity Rainfall Rate (Hourly) solar
00:00 76.8 °F 65.4 °F 29.85 in Calm   4 mph 68% 0.00 in 0 W/m2
00:09 76.5 °F 65.6 °F 29.85 in Calm     69% 0.00 in 0 W/m2
00:14 76.3 °F 65.4 °F 29.86 in WNW 0.5 mph 4 mph 69% 0.00 in 0 W/m2
00:19 76 °F 65.2 °F 29.86 in NW 0.5 mph 4 mph 69.2% 0.00 in 0 W/m2
00:24 75.8 °F 65 °F 29.86 in NW 0.4 mph 5 mph 69.2% 0.00 in 0 W/m2
00:29 75.6 °F 64.9 °F 29.86 in WNW 1.1 mph 7 mph 69.3% 0.00 in 0 W/m2
00:34 75.4 °F 64.8 °F 29.86 in WNW 0.2 mph 7 mph 69.5% 0.00 in 0 W/m2
00:39 75.3 °F 64.9 °F 29.86 in WNW 0.3 mph 4 mph 70% 0.00 in 0 W/m2
00:44 75.2 °F 64.8 °F 29.86 in WNW 0.1 mph 4 mph 70% 0.00 in 0 W/m2
00:49 75.1 °F 64.6 °F 29.86 in WNW 0.2 mph 4 mph 70% 0.00 in 0 W/m2
00:54 74.9 °F 64.5 °F 29.86 in NNW 1 mph 6 mph 70% 0.00 in 0 W/m2
00:59 74.8 °F 64.6 °F 29.86 in NNW 0.8 mph 6 mph 70.6% 0.00 in 0 W/m2
01:04 74.6 °F 64.6 °F 29.86 in Calm   6 mph 71% 0.00 in 0 W/m2
01:09 74.5 °F 64.5 °F 29.86 in Calm   1 mph 71% 0.00 in 0 W/m2
01:14 74.4 °F 64.5 °F 29.86 in NNW 0.5 mph 3 mph 71.2% 0.00 in 0 W/m2
01:19 74.3 °F 64.7 °F 29.86 in NW 0.3 mph 5 mph 72% 0.00 in 0 W/m2
01:24 74.1 °F 64.5 °F 29.86 in Calm   5 mph 72% 0.00 in 0 W/m2
01:29 74 °F 64.4 °F 29.86 in Calm   5 mph 72% 0.00 in 0 W/m2
01:34 73.9 °F 64.3 °F 29.86 in Calm   5 mph 72% 0.00 in 0 W/m2
01:39 73.7 °F 64.5 °F 29.86 in Calm     72.9% 0.00 in 0 W/m2
01:44 73.6 °F 64.4 °F 29.86 in Calm     73% 0.00 in 0 W/m2
01:49 73.4 °F 64.4 °F 29.86 in Calm     73.4% 0.00 in 0 W/m2
01:54 73.3 °F 64.5 °F 29.86 in Calm     74% 0.00 in 0 W/m2
01:59 73.1 °F 64.4 °F 29.86 in Calm     74% 0.00 in 0 W/m2
02:04 73 °F 64.2 °F 29.86 in Calm     74% 0.00 in 0 W/m2
02:09 72.8 °F 64.3 °F 29.86 in Calm   1 mph 74.6% 0.00 in 0 W/m2
02:14 72.7 °F 64.3 °F 29.86 in Calm   1 mph 75% 0.00 in 0 W/m2
02:19 72.6 °F 64.3 °F 29.86 in Calm   1 mph 75.2% 0.00 in 0 W/m2
02:24 72.4 °F 64.5 °F 29.86 in Calm   1 mph 76% 0.00 in 0 W/m2
02:29 72.3 °F 64.3 °F 29.86 in Calm   1 mph 76% 0.00 in 0 W/m2
02:34 72.1 °F 64.1 °F 29.86 in Calm   1 mph 76% 0.00 in 0 W/m2
02:39 71.9 °F 64 °F 29.86 in Calm     76.2% 0.00 in 0 W/m2
02:44 71.8 °F 64.2 °F 29.87 in Calm     77% 0.00 in 0 W/m2
02:49 71.6 °F 64.1 °F 29.87 in Calm     77% 0.00 in 0 W/m2
02:54 71.5 °F 63.9 °F 29.87 in Calm     77% 0.00 in 0 W/m2
02:59 71.3 °F 63.8 °F 29.87 in Calm     77.2% 0.00 in 0 W/m2
03:04 71.2 °F 64 °F 29.87 in Calm     78% 0.00 in 0 W/m2
03:09 71.1 °F 64 °F 29.87 in Calm     78.3% 0.00 in 0 W/m2
03:14 71 °F 64.2 °F 29.87 in Calm     79% 0.00 in 0 W/m2
03:19 70.8 °F 64 °F 29.87 in Calm     79% 0.00 in 0 W/m2
03:24 70.7 °F 64 °F 29.87 in Calm     79.5% 0.00 in 0 W/m2
03:29 70.5 °F 64.1 °F 29.88 in Calm     80% 0.00 in 0 W/m2
03:34 70.4 °F 63.9 °F 29.88 in Calm     80% 0.00 in 0 W/m2
03:39 70.3 °F 63.9 °F 29.88 in Calm     80.2% 0.00 in 0 W/m2
03:44 70.1 °F 64 °F 29.88 in Calm     81% 0.00 in 0 W/m2
03:49 70 °F 63.9 °F 29.88 in Calm     81% 0.00 in 0 W/m2
03:54 69.8 °F 64.1 °F 29.88 in Calm     81.9% 0.00 in 0 W/m2
03:59 69.7 °F 64 °F 29.88 in Calm     82% 0.00 in 0 W/m2
04:00 69.6 °F 63.9 °F 29.88 in Calm     82% 0.00 in 0 W/m2
04:09 69.3 °F 64 °F 29.89 in Calm     83% 0.00 in 0 W/m2
04:14 69.2 °F 63.8 °F 29.90 in Calm     83% 0.00 in 0 W/m2
04:19 69.1 °F 63.9 °F 29.90 in Calm     83.4% 0.00 in 0 W/m2
04:24 69 °F 64 °F 29.90 in Calm     84% 0.00 in 0 W/m2
04:29 68.9 °F 63.8 °F 29.90 in Calm     84% 0.00 in 0 W/m2
04:34 68.8 °F 63.7 °F 29.91 in Calm     84% 0.00 in 0 W/m2
04:39 68.7 °F 63.7 °F 29.91 in Calm     84% 0.00 in 0 W/m2
04:44 68.7 °F 63.8 °F 29.91 in Calm     84.5% 0.00 in 0 W/m2
04:49 68.7 °F 64 °F 29.91 in Calm     85% 0.00 in 0 W/m2
04:54 68.7 °F 64 °F 29.91 in Calm     85% 0.00 in 0 W/m2
04:59 68.6 °F 64 °F 29.91 in Calm     85% 0.00 in 0 W/m2
05:04 68.6 °F 63.9 °F 29.91 in Calm     85% 0.00 in 0 W/m2
05:09 68.6 °F 63.9 °F 29.91 in Calm     85% 0.00 in 0 W/m2
05:14 68.6 °F 63.9 °F 29.91 in Calm     85% 0.00 in 0 W/m2
05:19 68.5 °F 63.8 °F 29.91 in Calm     85% 0.00 in 0 W/m2
05:24 68.5 °F 63.8 °F 29.91 in Calm     85% 0.00 in 0 W/m2
05:29 68.4 °F 63.7 °F 29.91 in Calm     85% 0.00 in 0 W/m2
05:34 68.3 °F 63.6 °F 29.92 in Calm     85% 0.00 in 0 W/m2
05:39 68.2 °F 63.5 °F 29.92 in Calm     85% 0.00 in 0 W/m2
05:44 68.1 °F 63.4 °F 29.92 in Calm     85% 0.00 in 0 W/m2
05:49 68 °F 63.6 °F 29.92 in Calm     85.9% 0.00 in 0 W/m2
05:54 67.9 °F 63.6 °F 29.93 in Calm     86% 0.00 in 5 W/m2
05:59 67.8 °F 63.5 °F 29.92 in Calm     86% 0.00 in 9 W/m2
06:04 67.8 °F 63.4 °F 29.93 in Calm     86% 0.00 in 11 W/m2
06:09 67.7 °F 63.5 °F 29.93 in Calm   1 mph 86.4% 0.00 in 12 W/m2
06:14 67.7 °F 63.7 °F 29.93 in Calm   1 mph 87% 0.00 in 16 W/m2
06:19 67.7 °F 63.7 °F 29.93 in Calm   1 mph 87% 0.00 in 19 W/m2
06:24 67.8 °F 63.8 °F 29.93 in Calm   1 mph 87% 0.00 in 25 W/m2
06:29 67.9 °F 63.8 °F 29.93 in Calm   1 mph 87% 0.00 in 28 W/m2
06:34 67.9 °F 63.9 °F 29.92 in Calm   1 mph 87% 0.00 in 32 W/m2
06:39 68 °F 64 °F 29.93 in Calm     87% 0.00 in 44 W/m2
06:44 68.2 °F 64.2 °F 29.93 in Calm     87% 0.00 in 54 W/m2
06:49 68.4 °F 64.4 °F 29.93 in Calm     87% 0.00 in 60 W/m2
06:54 68.8 °F 64.8 °F 29.93 in Calm     87% 0.00 in 63 W/m2
06:59 69.4 °F 65.3 °F 29.93 in Calm     86.7% 0.00 in 116 W/m2
07:04 70.3 °F 65.7 °F 29.93 in Calm     85.5% 0.00 in 190 W/m2
07:09 71.3 °F 66.1 °F 29.93 in Calm     83.5% 0.00 in 206 W/m2
07:14 72.3 °F 66.5 °F 29.93 in NW 0.1 mph 2 mph 81.9% 0.00 in 221 W/m2
07:19 73.3 °F 66.6 °F 29.93 in Calm   2 mph 79.6% 0.00 in 234 W/m2
07:24 74.2 °F 66.7 °F 29.93 in Calm   2 mph 77.6% 0.00 in 251 W/m2
07:29 74.9 °F 66.4 °F 29.93 in Calm   2 mph 74.8% 0.00 in 271 W/m2
07:34 75.4 °F 66.6 °F 29.93 in Calm   2 mph 74% 0.00 in 288 W/m2
07:39 75.9 °F 66.9 °F 29.93 in Calm     73.6% 0.00 in 306 W/m2
07:44 76.3 °F 66.9 °F 29.93 in Calm     72.7% 0.00 in 323 W/m2
07:49 76.8 °F 67 °F 29.93 in Calm     71.9% 0.00 in 339 W/m2
07:54 77.2 °F 67.2 °F 29.93 in NE 1.2 mph 5 mph 71.3% 0.00 in 353 W/m2
07:59 77.3 °F 66.4 °F 29.93 in ENE 1.2 mph 6 mph 69.1% 0.00 in 371 W/m2
08:09 77.1 °F 66.3 °F 29.93 in NE 0.5 mph 4 mph 69.4% 0.00 in 406 W/m2
08:14 77.1 °F 66.5 °F 29.93 in NNE 0.1 mph 4 mph 69.8% 0.00 in 422 W/m2
08:19 77.5 °F 67.1 °F 29.93 in Calm   4 mph 70.5% 0.00 in 434 W/m2
08:24 78 °F 67.3 °F 29.93 in ESE 0.6 mph 6 mph 69.9% 0.00 in 452 W/m2
08:29 78.1 °F 67.1 °F 29.94 in ENE 0.5 mph 6 mph 69.1% 0.00 in 468 W/m2
08:34 78.3 °F 67.5 °F 29.94 in ENE 0.2 mph 6 mph 69.5% 0.00 in 487 W/m2
09:00 79.2 °F 68.6 °F 29.94 in ENE 1 mph 6 mph 70% 0.00 in 461 W/m2
09:30 82.3 °F 68.9 °F 29.94 in Calm   5 mph 64% 0.00 in 605 W/m2
10:00 82.6 °F 68.3 °F 29.95 in ENE 1 mph 6 mph 62% 0.00 in 690 W/m2
10:30 84 °F 69.1 °F 29.95 in Calm   5 mph 61% 0.00 in 764 W/m2
11:00 85.3 °F 69.8 °F 29.96 in ENE 1 mph 6 mph 60% 0.00 in 826 W/m2
11:30 86.8 °F 68.2 °F 29.96 in NNE 1 mph 6 mph 54% 0.00 in 882 W/m2
12:04 88.3 °F 68.7 °F 29.96 in Calm   1 mph 52.4% 0.00 in 1000 W/m2
12:09 88.4 °F 69 °F 29.96 in Calm   1 mph 52.8% 0.00 in 1030 W/m2
12:14 88.7 °F 69.1 °F 29.96 in Calm   1 mph 52.5% 0.00 in 1035 W/m2
12:19 88.3 °F 68.4 °F 29.96 in North 0.2 mph 2 mph 52% 0.00 in 221 W/m2
12:24 87.9 °F 69.2 °F 29.95 in Calm   2 mph 54.1% 0.00 in 1086 W/m2
12:29 87.7 °F 67.6 °F 29.96 in North 0.2 mph 3 mph 51.5% 0.00 in 230 W/m2
12:34 86.9 °F 67 °F 29.96 in Calm   3 mph 51.8% 0.00 in 323 W/m2
12:39 86.2 °F 66.8 °F 29.96 in Calm   1 mph 52.5% 0.00 in 1100 W/m2
12:44 86.3 °F 67 °F 29.95 in NNW 0.4 mph 4 mph 52.7% 0.00 in 1079 W/m2
12:49 86.9 °F 67.3 °F 29.95 in NW 0.5 mph 4 mph 52.2% 0.00 in 1002 W/m2
12:54 87.6 °F 67.8 °F 29.95 in NW 0.1 mph 4 mph 52% 0.00 in 995 W/m2
12:59 88.4 °F 67.6 °F 29.95 in NW 0.4 mph 4 mph 50.4% 0.00 in 1042 W/m2
13:04 88.7 °F 66.8 °F 29.95 in WNW 0.2 mph 4 mph 48.6% 0.00 in 1074 W/m2
13:09 88.8 °F 67.7 °F 29.94 in Calm   3 mph 49.9% 0.00 in 1074 W/m2
13:14 89 °F 67 °F 29.94 in WNW 0.4 mph 9 mph 48.5% 0.00 in 1085 W/m2
13:19 89 °F 67.4 °F 29.95 in West 0.7 mph 9 mph 49.1% 0.00 in 1136 W/m2
13:24 89.3 °F 67.5 °F 29.94 in WSW 0.4 mph 9 mph 48.8% 0.00 in 1130 W/m2
13:29 89.5 °F 67.4 °F 29.94 in WSW 0.4 mph 9 mph 48.3% 0.00 in 1097 W/m2
13:34 89.6 °F 67.5 °F 29.94 in West 1 mph 9 mph 48.3% 0.00 in 1072 W/m2
13:39 89.8 °F 67.5 °F 29.93 in WSW 0.8 mph 6 mph 48% 0.00 in 1028 W/m2
13:44 90.2 °F 67.2 °F 29.94 in West 0.6 mph 6 mph 47% 0.00 in 1037 W/m2
13:49 90.4 °F 66.5 °F 29.94 in WNW 1.8 mph 10 mph 45.4% 0.00 in 1014 W/m2
13:54 90.6 °F 67.4 °F 29.94 in West 1 mph 10 mph 46.5% 0.00 in 1011 W/m2
13:59 90.7 °F 67.2 °F 29.93 in West 0.3 mph 10 mph 46.2% 0.00 in 1002 W/m2
14:04 90.8 °F 67.8 °F 29.93 in West 0.3 mph 10 mph 46.9% 0.00 in 967 W/m2
14:09 90.8 °F 66.7 °F 29.93 in WSW 0.4 mph 5 mph 45.3% 0.00 in 962 W/m2
14:14 90.5 °F 67.1 °F 29.93 in Calm   5 mph 46.3% 0.00 in 972 W/m2
14:19 90.3 °F 66.9 °F 29.93 in WSW 1.6 mph 5 mph 46.2% 0.00 in 972 W/m2
14:24 90.4 °F 67.6 °F 29.92 in WSW 0.3 mph 5 mph 47.2% 0.00 in 970 W/m2
14:29 90.5 °F 67.3 °F 29.92 in SW 0.1 mph 5 mph 46.7% 0.00 in 953 W/m2
14:34 90.5 °F 67 °F 29.92 in WSW 1.1 mph 7 mph 46% 0.00 in 837 W/m2
14:39 90.7 °F 67.1 °F 29.92 in SSW 0.1 mph 7 mph 46% 0.00 in 619 W/m2
14:44 90.7 °F 67 °F 29.93 in SSW 0.5 mph 7 mph 45.8% 0.00 in 104 W/m2
14:49 90.8 °F 67.2 °F 29.93 in WSW 0.8 mph 7 mph 46% 0.00 in 111 W/m2
14:54 90.8 °F 66.3 °F 29.93 in NNW 0.6 mph 7 mph 44.5% 0.00 in 156 W/m2
14:59 90.6 °F 66.4 °F 29.92 in WSW 1.3 mph 7 mph 45% 0.00 in 100 W/m2
15:04 90.8 °F 66.7 °F 29.92 in WSW 0.7 mph 7 mph 45.3% 0.00 in 74 W/m2
15:09 90.9 °F 66.6 °F 29.92 in WSW 0.3 mph 6 mph 44.9% 0.00 in 58 W/m2
15:14 91 °F 65.5 °F 29.92 in WSW 0.3 mph 6 mph 43.2% 0.00 in 81 W/m2
15:19 90.8 °F 66.1 °F 29.92 in Calm   6 mph 44.3% 0.00 in 236 W/m2
15:24 90.7 °F 66.3 °F 29.92 in SSW 0.6 mph 6 mph 44.7% 0.00 in 125 W/m2
15:29 90.6 °F 66.7 °F 29.92 in SW 0.6 mph 6 mph 45.5% 0.00 in 54 W/m2
15:34 90.5 °F 66.4 °F 29.92 in SW 0.6 mph 7 mph 45.2% 0.00 in 60 W/m2
15:39 90.4 °F 66.1 °F 29.92 in SW 0.5 mph 7 mph 44.8% 0.00 in 60 W/m2
15:44 90.3 °F 67.3 °F 29.91 in West 0.9 mph 8 mph 46.9% 0.00 in 54 W/m2
15:49 90.5 °F 66.6 °F 29.91 in West 2.8 mph 9 mph 45.6% 0.00 in 56 W/m2
15:54 90.6 °F 66.8 °F 29.92 in WSW 1.1 mph 9 mph 45.8% 0.00 in 77 W/m2
15:59 90.6 °F 66.8 °F 29.91 in WSW 0.3 mph 9 mph 45.6% 0.00 in 60 W/m2
16:04 90.9 °F 67.3 °F 29.91 in WSW 1.5 mph 3 mph 46% 0.00 in 49 W/m2
16:09 91 °F 66.8 °F 29.91 in WNW 1.1 mph 6 mph 45.1% 0.00 in 62 W/m2
16:14 91 °F 66.8 °F 29.91 in West 0.2 mph 6 mph 45.2% 0.00 in 69 W/m2
16:19 90.5 °F 66.4 °F 29.91 in West 0.6 mph 6 mph 45.2% 0.00 in 47 W/m2
16:24 90.2 °F 66.2 °F 29.91 in West 0.9 mph 6 mph 45.3% 0.00 in 44 W/m2
16:29 90 °F 66.9 °F 29.91 in West 0.4 mph 6 mph 46.7% 0.00 in 42 W/m2
16:34 89.8 °F 66.4 °F 29.91 in WSW 0.7 mph 6 mph 46.1% 0.00 in 42 W/m2
16:39 89.7 °F 66 °F 29.91 in Calm   4 mph 45.8% 0.00 in 40 W/m2
16:44 89.5 °F 66.2 °F 29.90 in WSW 1.6 mph 7 mph 46.3% 0.00 in 39 W/m2
16:49 89.2 °F 66.3 °F 29.90 in SSW 0.9 mph 7 mph 46.9% 0.00 in 39 W/m2
16:54 89 °F 67.1 °F 29.91 in WNW 0.7 mph 7 mph 48.5% 0.00 in 39 W/m2
16:59 89 °F 66.7 °F 29.91 in WNW 0.3 mph 7 mph 47.9% 0.00 in 39 W/m2
17:02 89 °F 66.2 °F 29.91 in Calm   7 mph 47% 0.00 in 37 W/m2
17:30 88.8 °F 66.6 °F 29.90 in Calm   10 mph 48% 0.00 in 36 W/m2
18:00 88.6 °F 65.8 °F 29.89 in Calm   4 mph 47% 0.00 in 33 W/m2
18:30 88.3 °F 66.1 °F 29.90 in Calm   5 mph 48% 0.00 in 31 W/m2
19:00 87.5 °F 65.4 °F 29.90 in Calm   5 mph 48% 0.00 in 26 W/m2
19:30 86.4 °F 66.2 °F 29.91 in Calm   3 mph 51% 0.00 in 20 W/m2
20:04 84.5 °F 66.6 °F 29.91 in Calm     55% 0.00 in 0 W/m2
20:09 84.4 °F 66.6 °F 29.91 in Calm     55.3% 0.00 in 0 W/m2
20:14 84.2 °F 66.9 °F 29.91 in Calm     56% 0.00 in 0 W/m2
20:19 84.1 °F 66.7 °F 29.92 in Calm   1 mph 56% 0.00 in 0 W/m2
20:24 83.9 °F 67 °F 29.92 in Calm   1 mph 56.9% 0.00 in 0 W/m2
20:29 83.6 °F 66.8 °F 29.92 in Calm   1 mph 57% 0.00 in 0 W/m2
20:34 83.4 °F 66.6 °F 29.92 in Calm   1 mph 57.2% 0.00 in 0 W/m2
20:39 83.1 °F 66.7 °F 29.93 in Calm     57.9% 0.00 in 0 W/m2
20:44 82.9 °F 66.6 °F 29.93 in Calm     58% 0.00 in 0 W/m2
20:49 82.6 °F 66.6 °F 29.93 in Calm     58.5% 0.00 in 0 W/m2
20:54 82.3 °F 66.6 °F 29.93 in Calm     59% 0.00 in 0 W/m2
20:59 82.1 °F 66.4 °F 29.94 in Calm     59% 0.00 in 0 W/m2
21:04 81.9 °F 66.6 °F 29.94 in Calm     59.9% 0.00 in 0 W/m2
21:09 81.7 °F 66.5 °F 29.95 in Calm     60% 0.00 in 0 W/m2
21:14 81.5 °F 66.2 °F 29.95 in Calm   1 mph 60% 0.00 in 0 W/m2
21:19 81.2 °F 66.1 °F 29.95 in WSW 0.1 mph 2 mph 60.1% 0.00 in 0 W/m2
21:24 81 °F 66.3 °F 29.96 in Calm   2 mph 61% 0.00 in 0 W/m2
21:29 80.8 °F 66.2 °F 29.96 in Calm   2 mph 61.3% 0.00 in 0 W/m2
21:34 80.6 °F 66.4 °F 29.97 in Calm   2 mph 62% 0.00 in 0 W/m2
21:39 80.3 °F 66.6 °F 29.97 in Calm     62.9% 0.00 in 0 W/m2
21:44 80.1 °F 66.7 °F 29.97 in Calm   1 mph 63.7% 0.00 in 0 W/m2
21:49 79.9 °F 67 °F 29.97 in Calm   1 mph 64.8% 0.00 in 0 W/m2
21:54 79.7 °F 67.2 °F 29.96 in Calm   1 mph 65.8% 0.00 in 0 W/m2
21:59 79.4 °F 67.3 °F 29.97 in Calm   1 mph 66.4% 0.00 in 0 W/m2
22:04 79.2 °F 67.4 °F 29.97 in Calm   1 mph 67.1% 0.00 in 0 W/m2
22:09 79 °F 67.7 °F 29.97 in Calm     68.2% 0.00 in 0 W/m2
22:14 78.8 °F 67.8 °F 29.97 in Calm     69% 0.00 in 0 W/m2
22:19 78.6 °F 68 °F 29.97 in Calm     70% 0.00 in 0 W/m2
22:24 78.5 °F 68.3 °F 29.97 in Calm     71% 0.00 in 0 W/m2
22:29 78.3 °F 68.1 °F 29.98 in Calm     71% 0.00 in 0 W/m2
22:34 78.1 °F 68.3 °F 29.98 in Calm   2 mph 72% 0.00 in 0 W/m2
22:39 77.9 °F 68.3 °F 29.98 in Calm   2 mph 72.2% 0.00 in 0 W/m2
22:44 77.7 °F 68.4 °F 29.98 in Calm   2 mph 73% 0.00 in 0 W/m2
22:49 77.5 °F 68.2 °F 29.98 in Calm   2 mph 73% 0.00 in 0 W/m2
22:54 77.3 °F 68.3 °F 29.98 in Calm   2 mph 73.8% 0.00 in 0 W/m2
22:59 77.1 °F 68.2 °F 29.99 in Calm   2 mph 74% 0.00 in 0 W/m2
23:04 76.9 °F 68.3 °F 29.99 in Calm   2 mph 74.8% 0.00 in 0 W/m2
23:09 76.7 °F 68.2 °F 29.99 in Calm     75% 0.00 in 0 W/m2
23:14 76.6 °F 68.2 °F 29.99 in Calm     75.3% 0.00 in 0 W/m2
23:19 76.4 °F 68.3 °F 29.98 in Calm     76% 0.00 in 0 W/m2
23:24 76.4 °F 68.3 °F 29.98 in Calm     76% 0.00 in 0 W/m2
23:29 76.3 °F 68.2 °F 29.98 in Calm     76% 0.00 in 0 W/m2
23:34 76.2 °F 68.1 °F 29.98 in Calm     76% 0.00 in 0 W/m2
23:39 76.1 °F 68 °F 29.98 in Calm     76% 0.00 in 0 W/m2
23:44 76 °F 67.9 °F 29.99 in Calm     76% 0.00 in 0 W/m2
23:49 75.8 °F 68 °F 29.99 in Calm     76.7% 0.00 in 0 W/m2
23:54 75.7 °F 68 °F 29.98 in Calm     77% 0.00 in 0 W/m2
23:59 75.5 °F 68.2 °F 29.98 in Calm     77.9% 0.00 in 0 W/m2
Hartford County Weather
Compliments of Weather Underground - 2 mb